createdAt,value
2023-04-15T00:00:59.556Z,4.80
2023-04-15T00:03:26.778Z,5.05
2023-04-15T00:05:53.669Z,4.68
2023-04-15T00:08:20.616Z,4.70
2023-04-15T00:10:47.264Z,5.05
2023-04-15T00:13:13.881Z,4.63
2023-04-15T00:15:40.897Z,4.75
2023-04-15T00:18:08.301Z,4.53
2023-04-15T00:20:35.572Z,5.03
2023-04-15T00:23:04.228Z,5.88
2023-04-15T00:25:31.538Z,5.70
2023-04-15T00:27:58.272Z,5.50
2023-04-15T00:30:25.732Z,4.97
2023-04-15T00:32:52.827Z,4.25
2023-04-15T00:35:21.826Z,5.70
2023-04-15T00:37:51.298Z,4.70
2023-04-15T00:40:19.591Z,4.97
2023-04-15T00:42:46.225Z,5.05
2023-04-15T00:45:13.998Z,5.35
2023-04-15T00:47:42.346Z,5.60
2023-04-15T00:50:09.915Z,5.10
2023-04-15T00:52:37.252Z,6.03
2023-04-15T00:55:05.439Z,5.47
2023-04-15T00:57:32.329Z,5.55
2023-04-15T00:59:59.130Z,5.22
2023-04-15T01:02:26.035Z,6.00
2023-04-15T01:04:52.832Z,5.43
2023-04-15T01:07:19.592Z,5.32
2023-04-15T01:09:46.486Z,6.00
2023-04-15T01:12:15.465Z,5.82
2023-04-15T01:14:42.417Z,5.78
2023-04-15T01:17:09.241Z,5.82
2023-04-15T01:19:37.144Z,5.90
2023-04-15T01:22:05.313Z,5.70
2023-04-15T01:24:33.246Z,5.30
2023-04-15T01:26:59.956Z,5.57
2023-04-15T01:29:27.487Z,6.20
2023-04-15T01:31:56.034Z,5.95
2023-04-15T01:34:26.001Z,6.03
2023-04-15T01:36:54.035Z,6.55
2023-04-15T01:39:21.791Z,6.10
2023-04-15T01:41:48.604Z,5.95
2023-04-15T01:44:16.482Z,6.90
2023-04-15T01:46:43.170Z,6.72
2023-04-15T01:49:09.841Z,5.65
2023-04-15T01:51:36.490Z,6.50
2023-04-15T01:54:03.186Z,7.05
2023-04-15T01:56:30.344Z,5.97
2023-04-15T01:58:57.020Z,6.68
2023-04-15T02:01:23.799Z,6.95
2023-04-15T02:03:50.780Z,7.10
2023-04-15T02:06:18.396Z,7.50
2023-04-15T02:08:45.326Z,7.68
2023-04-15T02:11:12.067Z,7.57
2023-04-15T02:13:38.725Z,7.43
2023-04-15T02:16:15.936Z,8.10
2023-04-15T02:18:45.423Z,8.45
2023-04-15T02:21:12.020Z,8.32
2023-04-15T02:23:38.704Z,8.40
2023-04-15T02:26:05.389Z,6.63
2023-04-15T02:28:32.018Z,7.93
2023-04-15T02:30:59.837Z,8.38
2023-04-15T02:33:26.562Z,7.53
2023-04-15T02:35:53.297Z,8.93
2023-04-15T02:38:20.034Z,8.98
2023-04-15T02:40:49.651Z,8.88
2023-04-15T02:43:17.295Z,9.10
2023-04-15T02:45:45.692Z,9.05
2023-04-15T02:48:12.406Z,8.93
2023-04-15T02:50:40.701Z,10.18
2023-04-15T02:53:09.229Z,9.63
2023-04-15T02:55:35.866Z,8.85
2023-04-15T02:58:02.881Z,9.13
2023-04-15T03:00:29.631Z,9.18
2023-04-15T03:03:03.528Z,10.20
2023-04-15T03:05:30.636Z,9.40
2023-04-15T03:07:57.428Z,11.07
2023-04-15T03:10:24.127Z,9.75
2023-04-15T03:12:50.882Z,10.98
2023-04-15T03:15:19.662Z,10.15
2023-04-15T03:17:49.823Z,10.30
2023-04-15T03:20:17.435Z,11.20
2023-04-15T03:22:44.285Z,11.13
2023-04-15T03:25:11.394Z,10.20
2023-04-15T03:27:38.680Z,9.80
2023-04-15T03:30:06.738Z,9.93
2023-04-15T03:32:36.750Z,11.07
2023-04-15T03:35:03.535Z,10.30
2023-04-15T03:37:30.135Z,10.88
2023-04-15T03:39:56.718Z,10.82
2023-04-15T03:42:23.783Z,11.40
2023-04-15T03:44:50.670Z,9.90
2023-04-15T03:47:17.342Z,9.60
2023-04-15T03:49:44.001Z,10.20
2023-04-15T03:52:10.849Z,11.18
2023-04-15T03:54:37.483Z,10.38
2023-04-15T03:57:04.122Z,10.55
2023-04-15T03:59:30.686Z,11.93
2023-04-15T04:01:57.436Z,10.93
2023-04-15T04:04:24.330Z,11.30
2023-04-15T04:06:51.138Z,11.18
2023-04-15T04:09:17.749Z,11.43
2023-04-15T04:11:45.620Z,11.85
2023-04-15T04:14:12.188Z,10.95
2023-04-15T04:16:38.812Z,11.48
2023-04-15T04:19:05.493Z,11.20
2023-04-15T04:21:34.130Z,10.77
2023-04-15T04:24:00.750Z,11.55
2023-04-15T04:26:27.520Z,12.38
2023-04-15T04:28:54.120Z,12.15
2023-04-15T04:31:21.253Z,11.52
2023-04-15T04:33:47.930Z,11.90
2023-04-15T04:36:14.560Z,12.02
2023-04-15T04:38:41.470Z,12.10
2023-04-15T04:41:08.072Z,11.45
2023-04-15T04:43:34.678Z,11.90
2023-04-15T04:46:01.408Z,10.93
2023-04-15T04:48:28.015Z,11.50
2023-04-15T04:50:54.750Z,10.02
2023-04-15T04:53:21.562Z,12.00
2023-04-15T04:55:48.267Z,11.52
2023-04-15T04:58:14.911Z,11.52
2023-04-15T05:00:42.124Z,11.07
2023-04-15T05:03:09.158Z,12.63
2023-04-15T05:05:36.962Z,12.20
2023-04-15T05:08:03.755Z,10.85
2023-04-15T05:10:30.531Z,12.15
2023-04-15T05:12:57.681Z,11.85
2023-04-15T05:15:24.767Z,13.82
2023-04-15T05:17:51.685Z,13.23
2023-04-15T05:20:18.438Z,12.75
2023-04-15T05:22:45.166Z,11.30
2023-04-15T05:25:11.990Z,12.55
2023-04-15T05:27:38.686Z,11.57
2023-04-15T05:30:05.939Z,11.63
2023-04-15T05:32:32.567Z,11.43
2023-04-15T05:34:59.264Z,12.52
2023-04-15T05:37:26.143Z,13.20
2023-04-15T05:39:52.868Z,12.88
2023-04-15T05:42:19.548Z,12.65
2023-04-15T05:44:46.193Z,13.85
2023-04-15T05:47:12.810Z,12.63
2023-04-15T05:49:39.456Z,12.95
2023-04-15T05:52:06.373Z,15.50
2023-04-15T05:54:33.124Z,13.35
2023-04-15T05:56:59.782Z,13.73
2023-04-15T05:59:27.112Z,13.10
2023-04-15T06:01:53.848Z,13.85
2023-04-15T06:04:20.599Z,14.13
2023-04-15T06:06:47.340Z,14.93
2023-04-15T06:09:13.986Z,13.60
2023-04-15T06:11:41.345Z,14.98
2023-04-15T06:14:08.255Z,14.63
2023-04-15T06:16:36.670Z,14.27
2023-04-15T06:19:03.894Z,15.02
2023-04-15T06:21:31.508Z,16.52
2023-04-15T06:24:00.038Z,15.18
2023-04-15T06:26:27.200Z,14.60
2023-04-15T06:28:53.918Z,15.00
2023-04-15T06:31:20.810Z,14.30
2023-04-15T06:33:47.467Z,14.43
2023-04-15T06:36:14.108Z,14.80
2023-04-15T06:38:40.779Z,13.98
2023-04-15T06:41:07.932Z,13.98
2023-04-15T06:43:34.717Z,14.23
2023-04-15T06:46:01.360Z,15.02
2023-04-15T06:48:28.211Z,14.40
2023-04-15T06:50:55.114Z,14.32
2023-04-15T06:53:22.146Z,15.85
2023-04-15T06:55:48.777Z,15.05
2023-04-15T06:58:15.584Z,15.63
2023-04-15T07:00:42.373Z,15.35
2023-04-15T07:03:11.266Z,14.27
2023-04-15T07:05:38.569Z,14.40
2023-04-15T07:08:06.607Z,13.80
2023-04-15T07:10:36.371Z,14.35
2023-04-15T07:13:03.062Z,16.15
2023-04-15T07:15:30.069Z,15.07
2023-04-15T07:17:56.772Z,14.70
2023-04-15T07:20:23.525Z,14.25
2023-04-15T07:22:50.207Z,14.52
2023-04-15T07:25:17.722Z,14.88
2023-04-15T07:27:44.605Z,14.90
2023-04-15T07:30:12.538Z,15.20
2023-04-15T07:32:39.307Z,14.23
2023-04-15T07:35:06.158Z,13.45
2023-04-15T07:37:33.609Z,13.00
2023-04-15T07:40:00.358Z,12.27
2023-04-15T07:42:27.093Z,13.48
2023-04-15T07:44:53.695Z,12.82
2023-04-15T07:47:20.535Z,12.32
2023-04-15T07:49:47.351Z,12.18
2023-04-15T07:52:13.957Z,12.02
2023-04-15T07:54:40.550Z,11.13
2023-04-15T07:57:07.907Z,10.60
2023-04-15T07:59:34.639Z,10.75
2023-04-15T08:02:01.391Z,10.15
2023-04-15T08:04:28.647Z,9.13
2023-04-15T08:06:55.476Z,9.32
2023-04-15T08:09:22.111Z,8.63
2023-04-15T08:11:49.422Z,8.77
2023-04-15T08:14:17.477Z,9.02
2023-04-15T08:16:44.312Z,7.93
2023-04-15T08:19:11.377Z,8.30
2023-04-15T08:21:38.043Z,7.80
2023-04-15T08:24:04.817Z,7.28
2023-04-15T08:26:31.389Z,7.40
2023-04-15T08:28:58.181Z,6.45
2023-04-15T08:31:26.890Z,6.07
2023-04-15T08:33:55.237Z,5.65
2023-04-15T08:36:22.005Z,5.50
2023-04-15T08:38:48.572Z,5.00
2023-04-15T08:41:23.606Z,4.45
2023-04-15T08:43:54.815Z,5.50
2023-04-15T08:46:22.134Z,5.82
2023-04-15T08:48:49.500Z,4.82
2023-04-15T08:51:17.719Z,4.93
2023-04-15T08:53:44.609Z,4.90
2023-04-15T08:56:11.804Z,4.47
2023-04-15T08:58:38.428Z,4.30
2023-04-15T09:01:05.127Z,5.10
2023-04-15T09:03:32.569Z,4.88
2023-04-15T09:05:59.784Z,4.93
2023-04-15T09:08:26.679Z,3.63
2023-04-15T09:10:54.194Z,4.18
2023-04-15T09:13:20.848Z,4.05
2023-04-15T09:15:47.543Z,4.00
2023-04-15T09:18:14.462Z,3.95
2023-04-15T09:20:44.625Z,4.10
2023-04-15T09:23:15.155Z,3.85
2023-04-15T09:25:42.701Z,3.70
2023-04-15T09:28:09.631Z,4.22
2023-04-15T09:30:36.778Z,4.00
2023-04-15T09:33:08.739Z,4.32
2023-04-15T09:35:36.756Z,4.63
2023-04-15T09:38:07.567Z,3.85
2023-04-15T09:40:39.028Z,3.85
2023-04-15T09:43:07.089Z,3.85
2023-04-15T09:45:35.189Z,3.10
2023-04-15T09:48:16.944Z,3.05
2023-04-15T09:50:44.198Z,3.00
2023-04-15T09:53:14.291Z,2.65
2023-04-15T09:55:45.473Z,2.65
2023-04-15T09:58:29.408Z,2.22
2023-04-15T10:03:26.475Z,2.33
2023-04-15T10:05:55.683Z,2.20
2023-04-15T10:08:26.733Z,2.00
2023-04-15T10:10:53.960Z,1.98
2023-04-15T10:13:24.826Z,1.95
2023-04-15T10:16:00.471Z,2.95
2023-04-15T10:18:28.444Z,1.63
2023-04-15T10:20:58.258Z,2.10
2023-04-15T10:23:25.744Z,2.50
2023-04-15T10:25:56.224Z,2.38
2023-04-15T10:28:22.970Z,2.13
2023-04-15T10:30:50.117Z,1.90
2023-04-15T10:33:20.446Z,2.10
2023-04-15T10:35:48.923Z,2.30
2023-04-15T10:38:38.380Z,2.28
2023-04-15T10:41:22.001Z,2.05
2023-04-15T10:43:57.702Z,2.45
2023-04-15T10:46:24.611Z,2.13
2023-04-15T10:48:53.127Z,2.10
2023-04-15T10:51:30.684Z,2.58
2023-04-15T10:53:59.436Z,2.55
2023-04-15T10:56:26.311Z,2.28
2023-04-15T10:58:53.035Z,2.25
2023-04-15T11:01:23.298Z,2.25
2023-04-15T11:03:51.598Z,2.15
2023-04-15T11:06:18.444Z,2.30
2023-04-15T11:08:59.393Z,1.90
2023-04-15T11:12:04.749Z,2.25
2023-04-15T11:14:33.959Z,2.08
2023-04-15T11:17:00.675Z,1.95
2023-04-15T11:19:27.406Z,2.17
2023-04-15T11:21:54.131Z,2.38
2023-04-15T11:24:27.303Z,2.20
2023-04-15T11:27:01.872Z,1.65
2023-04-15T11:29:32.308Z,2.08
2023-04-15T11:32:07.446Z,1.85
2023-04-15T11:34:36.212Z,1.80
2023-04-15T11:37:06.399Z,1.98
2023-04-15T11:39:33.178Z,2.17
2023-04-15T11:41:59.818Z,2.22
2023-04-15T11:44:26.467Z,2.13
2023-04-15T11:46:53.129Z,2.40
2023-04-15T11:49:30.759Z,1.70
2023-04-15T11:51:57.457Z,2.38
2023-04-15T11:54:24.097Z,2.10
2023-04-15T11:56:52.189Z,2.35
2023-04-15T11:59:18.782Z,2.15
2023-04-15T12:01:47.604Z,2.67
2023-04-15T12:04:17.116Z,2.83
2023-04-15T12:06:43.980Z,3.20
2023-04-15T12:09:12.241Z,2.65
2023-04-15T12:11:58.267Z,2.90
2023-04-15T12:14:29.394Z,2.70
2023-04-15T12:17:06.670Z,2.30
2023-04-15T12:19:43.256Z,2.83
2023-04-15T12:22:11.262Z,2.47
2023-04-15T12:24:38.832Z,2.42
2023-04-15T12:27:07.107Z,2.28
2023-04-15T12:29:35.147Z,2.13
2023-04-15T12:32:09.962Z,2.30
2023-04-15T12:34:41.518Z,1.90
2023-04-15T12:37:09.893Z,1.85
2023-04-15T12:39:39.700Z,1.50
2023-04-15T12:42:07.576Z,1.80
2023-04-15T12:44:34.862Z,1.80
2023-04-15T12:47:01.678Z,1.60
2023-04-15T12:49:28.933Z,1.80
2023-04-15T12:51:57.827Z,1.75
2023-04-15T12:54:24.435Z,1.80
2023-04-15T12:56:51.322Z,2.03
2023-04-15T12:59:18.727Z,2.20
2023-04-15T13:01:46.638Z,2.83
2023-04-15T13:04:13.417Z,2.00
2023-04-15T13:06:40.294Z,2.20
2023-04-15T13:09:07.349Z,2.53
2023-04-15T13:11:34.430Z,2.00
2023-04-15T13:14:02.459Z,2.60
2023-04-15T13:16:29.428Z,1.98
2023-04-15T13:18:56.367Z,2.22
2023-04-15T13:21:22.957Z,2.05
2023-04-15T13:23:52.655Z,2.08
2023-04-15T13:26:19.624Z,2.00
2023-04-15T13:28:46.377Z,2.10
2023-04-15T13:31:12.997Z,1.95
2023-04-15T13:33:39.659Z,1.95
2023-04-15T13:36:06.712Z,2.53
2023-04-15T13:38:33.353Z,2.40
2023-04-15T13:41:00.028Z,2.08
2023-04-15T13:43:27.049Z,2.30
2023-04-15T13:45:53.727Z,1.80
2023-04-15T13:48:20.379Z,2.83
2023-04-15T13:50:47.058Z,2.28
2023-04-15T13:53:13.788Z,2.00
2023-04-15T13:55:43.953Z,2.15
2023-04-15T13:58:11.304Z,1.85
2023-04-15T14:00:38.041Z,2.47
2023-04-15T14:03:05.128Z,1.67
2023-04-15T14:05:32.944Z,2.13
2023-04-15T14:08:00.830Z,1.55
2023-04-15T14:10:27.478Z,1.60
2023-04-15T14:12:54.208Z,1.75
2023-04-15T14:15:21.640Z,2.08
2023-04-15T14:17:48.382Z,1.42
2023-04-15T14:20:17.012Z,2.05
2023-04-15T14:22:44.143Z,1.83
2023-04-15T14:25:17.313Z,1.27
2023-04-15T14:27:46.778Z,1.83
2023-04-15T14:30:13.608Z,1.70
2023-04-15T14:32:40.389Z,1.63
2023-04-15T14:35:07.206Z,1.55
2023-04-15T14:37:33.832Z,1.67
2023-04-15T14:40:00.441Z,1.38
2023-04-15T14:42:27.078Z,1.60
2023-04-15T14:44:53.758Z,1.45
2023-04-15T14:47:20.579Z,1.73
2023-04-15T14:49:47.288Z,1.38
2023-04-15T14:52:13.947Z,1.73
2023-04-15T14:54:40.610Z,3.20
2023-04-15T14:57:08.717Z,2.85
2023-04-15T14:59:35.365Z,2.47
2023-04-15T15:02:02.073Z,3.40
2023-04-15T15:04:29.457Z,3.50
2023-04-15T15:06:56.190Z,2.25
2023-04-15T15:09:23.833Z,3.85
2023-04-15T15:11:50.927Z,1.90
2023-04-15T15:14:17.548Z,2.05
2023-04-15T15:16:44.286Z,2.40
2023-04-15T15:19:11.007Z,2.15
2023-04-15T15:21:37.835Z,1.52
2023-04-15T15:24:04.871Z,2.70
2023-04-15T15:26:31.684Z,2.28
2023-04-15T15:28:58.525Z,2.38
2023-04-15T15:31:25.289Z,1.80
2023-04-15T15:33:52.925Z,3.30
2023-04-15T15:36:19.590Z,2.58
2023-04-15T15:38:46.265Z,2.25
2023-04-15T15:41:12.859Z,5.38
2023-04-15T15:43:39.608Z,4.00
2023-04-15T15:46:06.265Z,2.80
2023-04-15T15:48:33.003Z,2.42
2023-04-15T15:50:59.696Z,2.30
2023-04-15T15:53:26.381Z,2.30
2023-04-15T15:55:54.030Z,2.95
2023-04-15T15:58:20.783Z,2.55
2023-04-15T16:00:47.713Z,2.88
2023-04-15T16:03:15.532Z,3.65
2023-04-15T16:05:42.723Z,3.38
2023-04-15T16:08:09.481Z,2.55
2023-04-15T16:10:36.124Z,2.45
2023-04-15T16:13:02.857Z,2.53
2023-04-15T16:15:29.656Z,4.68
2023-04-15T16:17:56.512Z,3.65
2023-04-15T16:20:23.417Z,3.92
2023-04-15T16:22:50.395Z,3.78
2023-04-15T16:25:17.232Z,3.17
2023-04-15T16:27:57.818Z,3.47
2023-04-15T16:32:56.648Z,3.25
2023-04-15T16:35:23.303Z,3.17
2023-04-15T16:37:49.885Z,3.20
2023-04-15T16:40:16.534Z,3.05
2023-04-15T16:42:43.789Z,3.47
2023-04-15T16:45:10.794Z,3.67
2023-04-15T16:47:37.441Z,3.85
2023-04-15T16:50:04.383Z,3.03
2023-04-15T16:52:31.057Z,3.30
2023-04-15T16:54:57.703Z,4.18
2023-04-15T16:57:24.667Z,4.40
2023-04-15T16:59:57.971Z,3.85
2023-04-15T17:02:24.681Z,4.93
2023-04-15T17:04:51.371Z,4.72
2023-04-15T17:07:18.033Z,4.97
2023-04-15T17:09:44.693Z,5.00
2023-04-15T17:12:11.488Z,5.32
2023-04-15T17:14:38.964Z,5.13
2023-04-15T17:17:06.277Z,5.38
2023-04-15T17:19:32.952Z,5.05
2023-04-15T17:21:59.663Z,5.20
2023-04-15T17:24:26.568Z,5.20
2023-04-15T17:26:53.950Z,6.50
2023-04-15T17:29:20.670Z,5.47
2023-04-15T17:31:47.343Z,5.93
2023-04-15T17:34:15.945Z,5.70
2023-04-15T17:36:42.717Z,9.18
2023-04-15T17:39:09.421Z,6.43
2023-04-15T17:41:36.163Z,5.72
2023-04-15T17:44:02.935Z,5.32
2023-04-15T17:46:30.156Z,5.97
2023-04-15T17:48:56.821Z,11.32
2023-04-15T17:51:23.391Z,8.32
2023-04-15T17:53:50.377Z,8.57
2023-04-15T17:56:17.057Z,6.55
2023-04-15T17:58:43.744Z,8.30
2023-04-15T18:01:10.433Z,7.70
2023-04-15T18:03:37.160Z,11.85
2023-04-15T18:06:04.030Z,7.30
2023-04-15T18:08:31.233Z,6.65
2023-04-15T18:10:57.963Z,7.38
2023-04-15T18:13:24.639Z,6.18
2023-04-15T18:15:51.467Z,8.02
2023-04-15T18:18:18.233Z,7.78
2023-04-15T18:20:44.810Z,7.13
2023-04-15T18:23:11.506Z,8.48
2023-04-15T18:25:38.425Z,8.15
2023-04-15T18:28:05.667Z,8.93
2023-04-15T18:30:32.339Z,10.02
2023-04-15T18:32:59.005Z,9.18
2023-04-15T18:35:25.769Z,10.02
2023-04-15T18:37:53.020Z,9.38
2023-04-15T18:40:19.674Z,8.82
2023-04-15T18:42:46.298Z,9.88
2023-04-15T18:45:12.991Z,8.43
2023-04-15T18:47:39.749Z,9.27
2023-04-15T18:50:07.781Z,9.77
2023-04-15T18:52:34.457Z,10.50
2023-04-15T18:55:03.176Z,10.10
2023-04-15T18:57:35.126Z,10.75
2023-04-15T19:00:03.599Z,11.13
2023-04-15T19:02:30.277Z,10.93
2023-04-15T19:04:56.965Z,12.63
2023-04-15T19:07:24.023Z,11.60
2023-04-15T19:09:50.718Z,10.43
2023-04-15T19:12:17.314Z,13.27
2023-04-15T19:14:44.010Z,12.52
2023-04-15T19:17:11.045Z,14.00
2023-04-15T19:19:38.547Z,14.32
2023-04-15T19:22:05.807Z,10.38
2023-04-15T19:24:33.232Z,11.48
2023-04-15T19:27:00.071Z,11.38
2023-04-15T19:29:28.539Z,10.75
2023-04-15T19:31:55.293Z,9.88
2023-04-15T19:34:21.954Z,10.77
2023-04-15T19:36:48.564Z,11.15
2023-04-15T19:39:15.532Z,10.93
2023-04-15T19:41:43.990Z,11.23
2023-04-15T19:44:12.924Z,10.75
2023-04-15T19:46:44.768Z,12.00
2023-04-15T19:49:11.594Z,10.82
2023-04-15T19:51:38.240Z,11.20
2023-04-15T19:54:04.935Z,11.65
2023-04-15T19:56:34.141Z,11.75
2023-04-15T19:59:02.189Z,12.18
2023-04-15T20:01:28.947Z,12.27
2023-04-15T20:03:56.031Z,11.20
2023-04-15T20:06:22.893Z,13.57
2023-04-15T20:08:49.743Z,14.70
2023-04-15T20:11:16.643Z,13.75
2023-04-15T20:13:43.269Z,14.07
2023-04-15T20:16:11.674Z,14.32
2023-04-15T20:18:38.357Z,14.02
2023-04-15T20:21:05.058Z,15.07
2023-04-15T20:23:31.706Z,16.75
2023-04-15T20:25:58.360Z,16.08
2023-04-15T20:28:27.427Z,16.15
2023-04-15T20:30:54.182Z,19.67
2023-04-15T20:33:22.191Z,18.85
2023-04-15T20:35:48.886Z,20.40
2023-04-15T20:38:16.361Z,19.38
2023-04-15T20:40:43.447Z,18.40
2023-04-15T20:43:10.095Z,20.08
2023-04-15T20:45:37.204Z,20.00
2023-04-15T20:48:04.570Z,15.93
2023-04-15T20:50:31.781Z,20.30
2023-04-15T20:52:58.428Z,21.45
2023-04-15T20:55:25.024Z,20.75
2023-04-15T20:57:52.390Z,20.80
2023-04-15T21:00:19.015Z,19.90
2023-04-15T21:02:46.036Z,21.98
2023-04-15T21:05:12.819Z,23.00
2023-04-15T21:07:39.527Z,22.42
2023-04-15T21:10:06.505Z,21.00
2023-04-15T21:12:33.211Z,21.15
2023-04-15T21:14:59.875Z,21.90
2023-04-15T21:17:26.668Z,22.48
2023-04-15T21:19:53.324Z,21.77
2023-04-15T21:22:19.972Z,23.92
2023-04-15T21:24:46.712Z,21.08
2023-04-15T21:27:13.357Z,21.85
2023-04-15T21:29:40.389Z,22.80
2023-04-15T21:32:07.131Z,23.67
2023-04-15T21:34:33.973Z,23.73
2023-04-15T21:37:00.697Z,25.25
2023-04-15T21:39:27.249Z,23.63
2023-04-15T21:41:53.958Z,25.23
2023-04-15T21:44:20.752Z,24.55
2023-04-15T21:46:47.408Z,24.20
2023-04-15T21:49:14.086Z,27.05
2023-04-15T21:51:40.812Z,25.52
2023-04-15T21:54:07.485Z,25.17
2023-04-15T21:56:34.225Z,27.33
2023-04-15T21:59:01.250Z,23.55
2023-04-15T22:01:28.013Z,25.77
2023-04-15T22:03:55.096Z,25.77
2023-04-15T22:06:21.968Z,24.92
2023-04-15T22:08:57.575Z,28.83
2023-04-15T22:11:38.304Z,28.98
2023-04-15T22:14:05.784Z,27.35
2023-04-15T22:16:32.416Z,26.90
2023-04-15T22:18:59.088Z,28.95
2023-04-15T22:21:26.593Z,30.60
2023-04-15T22:23:53.416Z,28.67
2023-04-15T22:26:39.958Z,32.53
2023-04-15T22:29:06.975Z,27.35
2023-04-15T22:31:33.807Z,30.88
2023-04-15T22:34:00.459Z,32.38
2023-04-15T22:36:27.393Z,32.60
2023-04-15T22:38:54.140Z,32.30
2023-04-15T22:41:21.019Z,30.83
2023-04-15T22:43:47.711Z,32.15
2023-04-15T22:46:14.628Z,32.47
2023-04-15T22:48:42.513Z,36.47
2023-04-15T22:51:09.157Z,34.58
2023-04-15T22:53:35.861Z,33.25
2023-04-15T22:56:02.527Z,35.75
2023-04-15T22:58:32.067Z,39.72
2023-04-15T23:00:59.168Z,35.30
2023-04-15T23:03:25.966Z,32.63
2023-04-15T23:05:53.238Z,34.75
2023-04-15T23:08:19.948Z,36.17
2023-04-15T23:10:46.648Z,36.30
2023-04-15T23:13:13.337Z,35.50
2023-04-15T23:15:40.235Z,35.50
2023-04-15T23:18:07.016Z,38.92
2023-04-15T23:20:34.039Z,36.00
2023-04-15T23:23:00.684Z,37.78
2023-04-15T23:25:27.272Z,31.77
2023-04-15T23:27:53.892Z,36.03
2023-04-15T23:30:20.467Z,35.10
2023-04-15T23:32:47.143Z,37.50
2023-04-15T23:35:13.814Z,35.53
2023-04-15T23:37:40.616Z,37.33
2023-04-15T23:40:07.861Z,38.25
2023-04-15T23:42:34.437Z,34.33
2023-04-15T23:45:01.177Z,38.13
2023-04-15T23:47:27.867Z,35.38
2023-04-15T23:49:54.540Z,38.58
2023-04-15T23:52:21.144Z,35.53
2023-04-15T23:54:47.766Z,40.55
2023-04-15T23:57:14.304Z,37.30
2023-04-15T23:59:40.971Z,38.72
